sensor_id;sensor_type;location;lat;lon;timestamp;P1;durP1;ratioP1;P2;durP2;ratioP2
34236;SDS011;20501;45.956;13.632;2022-08-01T00:01:01;3.70;;;2.87;;
34236;SDS011;20501;45.956;13.632;2022-08-01T00:03:27;4.68;;;4.15;;
34236;SDS011;20501;45.956;13.632;2022-08-01T00:05:52;5.13;;;3.17;;
34236;SDS011;20501;45.956;13.632;2022-08-01T00:08:18;3.87;;;2.67;;
34236;SDS011;20501;45.956;13.632;2022-08-01T00:10:43;3.75;;;2.70;;
34236;SDS011;20501;45.956;13.632;2022-08-01T00:13:08;4.60;;;2.45;;
34236;SDS011;20501;45.956;13.632;2022-08-01T00:15:34;3.00;;;2.72;;
34236;SDS011;20501;45.956;13.632;2022-08-01T00:18:00;2.70;;;2.50;;
34236;SDS011;20501;45.956;13.632;2022-08-01T00:20:26;4.07;;;2.65;;
34236;SDS011;20501;45.956;13.632;2022-08-01T00:22:51;3.17;;;2.88;;
34236;SDS011;20501;45.956;13.632;2022-08-01T00:25:17;4.35;;;3.50;;
34236;SDS011;20501;45.956;13.632;2022-08-01T00:27:42;3.10;;;2.80;;
34236;SDS011;20501;45.956;13.632;2022-08-01T00:30:08;6.30;;;3.50;;
34236;SDS011;20501;45.956;13.632;2022-08-01T00:32:33;3.67;;;3.38;;
34236;SDS011;20501;45.956;13.632;2022-08-01T00:34:59;8.43;;;4.28;;
34236;SDS011;20501;45.956;13.632;2022-08-01T00:37:24;4.60;;;3.72;;
34236;SDS011;20501;45.956;13.632;2022-08-01T00:39:50;3.40;;;3.10;;
34236;SDS011;20501;45.956;13.632;2022-08-01T00:42:15;3.58;;;3.17;;
34236;SDS011;20501;45.956;13.632;2022-08-01T00:44:41;3.10;;;2.78;;
34236;SDS011;20501;45.956;13.632;2022-08-01T00:47:06;3.35;;;2.80;;
34236;SDS011;20501;45.956;13.632;2022-08-01T00:49:32;4.20;;;3.05;;
34236;SDS011;20501;45.956;13.632;2022-08-01T00:52:00;3.65;;;3.15;;
34236;SDS011;20501;45.956;13.632;2022-08-01T00:54:29;2.85;;;2.63;;
34236;SDS011;20501;45.956;13.632;2022-08-01T00:56:54;2.55;;;2.35;;
34236;SDS011;20501;45.956;13.632;2022-08-01T00:59:28;3.50;;;3.13;;
34236;SDS011;20501;45.956;13.632;2022-08-01T01:01:53;4.03;;;2.83;;
34236;SDS011;20501;45.956;13.632;2022-08-01T01:04:19;3.70;;;3.30;;
34236;SDS011;20501;45.956;13.632;2022-08-01T01:12:31;3.60;;;3.08;;
34236;SDS011;20501;45.956;13.632;2022-08-01T01:15:09;4.68;;;3.10;;
34236;SDS011;20501;45.956;13.632;2022-08-01T01:17:45;2.72;;;2.53;;
34236;SDS011;20501;45.956;13.632;2022-08-01T01:20:16;2.70;;;2.50;;
34236;SDS011;20501;45.956;13.632;2022-08-01T01:30:54;5.13;;;4.00;;
34236;SDS011;20501;45.956;13.632;2022-08-01T01:33:22;4.70;;;4.30;;
34236;SDS011;20501;45.956;13.632;2022-08-01T01:35:51;3.50;;;3.10;;
34236;SDS011;20501;45.956;13.632;2022-08-01T01:38:23;3.38;;;3.08;;
34236;SDS011;20501;45.956;13.632;2022-08-01T01:40:51;4.13;;;3.72;;
34236;SDS011;20501;45.956;13.632;2022-08-01T01:43:18;3.80;;;3.47;;
34236;SDS011;20501;45.956;13.632;2022-08-01T01:45:46;3.00;;;2.80;;
34236;SDS011;20501;45.956;13.632;2022-08-01T01:48:13;3.05;;;2.85;;
34236;SDS011;20501;45.956;13.632;2022-08-01T01:50:42;5.65;;;3.28;;
34236;SDS011;20501;45.956;13.632;2022-08-01T01:53:10;3.63;;;3.03;;
34236;SDS011;20501;45.956;13.632;2022-08-01T01:55:38;5.47;;;3.67;;
34236;SDS011;20501;45.956;13.632;2022-08-01T01:58:06;4.32;;;3.70;;
34236;SDS011;20501;45.956;13.632;2022-08-01T02:00:35;4.18;;;3.72;;
34236;SDS011;20501;45.956;13.632;2022-08-01T02:03:02;4.10;;;3.55;;
34236;SDS011;20501;45.956;13.632;2022-08-01T02:05:30;4.43;;;3.63;;
34236;SDS011;20501;45.956;13.632;2022-08-01T02:07:59;5.28;;;3.88;;
34236;SDS011;20501;45.956;13.632;2022-08-01T02:10:26;6.53;;;3.90;;
34236;SDS011;20501;45.956;13.632;2022-08-01T02:12:53;7.40;;;3.97;;
34236;SDS011;20501;45.956;13.632;2022-08-01T02:15:19;5.33;;;3.80;;
34236;SDS011;20501;45.956;13.632;2022-08-01T02:17:47;7.20;;;4.38;;
34236;SDS011;20501;45.956;13.632;2022-08-01T02:20:14;5.45;;;4.60;;
34236;SDS011;20501;45.956;13.632;2022-08-01T02:22:50;6.25;;;4.10;;
34236;SDS011;20501;45.956;13.632;2022-08-01T02:25:31;4.88;;;3.63;;
34236;SDS011;20501;45.956;13.632;2022-08-01T02:28:03;5.82;;;4.20;;
34236;SDS011;20501;45.956;13.632;2022-08-01T02:30:33;5.72;;;3.60;;
34236;SDS011;20501;45.956;13.632;2022-08-01T02:35:44;3.95;;;2.80;;
34236;SDS011;20501;45.956;13.632;2022-08-01T02:38:15;3.08;;;2.88;;
34236;SDS011;20501;45.956;13.632;2022-08-01T02:40:45;4.63;;;3.97;;
34236;SDS011;20501;45.956;13.632;2022-08-01T02:43:12;4.25;;;3.85;;
34236;SDS011;20501;45.956;13.632;2022-08-01T02:45:43;3.50;;;3.20;;
34236;SDS011;20501;45.956;13.632;2022-08-01T02:48:13;6.50;;;3.15;;
34236;SDS011;20501;45.956;13.632;2022-08-01T02:50:42;2.85;;;2.53;;
34236;SDS011;20501;45.956;13.632;2022-08-01T02:53:10;4.65;;;3.00;;
34236;SDS011;20501;45.956;13.632;2022-08-01T02:55:40;2.90;;;2.60;;
34236;SDS011;20501;45.956;13.632;2022-08-01T02:58:08;4.18;;;3.78;;
34236;SDS011;20501;45.956;13.632;2022-08-01T03:00:36;3.35;;;3.05;;
34236;SDS011;20501;45.956;13.632;2022-08-01T03:03:03;4.45;;;3.67;;
34236;SDS011;20501;45.956;13.632;2022-08-01T03:05:31;3.47;;;3.03;;
34236;SDS011;20501;45.956;13.632;2022-08-01T03:07:57;5.18;;;4.20;;
34236;SDS011;20501;45.956;13.632;2022-08-01T03:10:26;4.40;;;2.90;;
34236;SDS011;20501;45.956;13.632;2022-08-01T03:12:53;4.97;;;4.45;;
34236;SDS011;20501;45.956;13.632;2022-08-01T03:15:20;3.42;;;3.13;;
34236;SDS011;20501;45.956;13.632;2022-08-01T03:17:50;5.72;;;3.30;;
34236;SDS011;20501;45.956;13.632;2022-08-01T03:22:57;5.65;;;4.20;;
34236;SDS011;20501;45.956;13.632;2022-08-01T03:25:26;7.47;;;3.38;;
34236;SDS011;20501;45.956;13.632;2022-08-01T03:27:54;4.40;;;3.05;;
34236;SDS011;20501;45.956;13.632;2022-08-01T03:30:23;4.38;;;2.83;;
34236;SDS011;20501;45.956;13.632;2022-08-01T03:32:50;5.32;;;3.40;;
34236;SDS011;20501;45.956;13.632;2022-08-01T03:35:16;4.70;;;3.47;;
34236;SDS011;20501;45.956;13.632;2022-08-01T03:37:44;6.35;;;3.55;;
34236;SDS011;20501;45.956;13.632;2022-08-01T03:40:13;3.42;;;3.13;;
34236;SDS011;20501;45.956;13.632;2022-08-01T03:42:54;3.60;;;3.30;;
34236;SDS011;20501;45.956;13.632;2022-08-01T03:45:31;3.60;;;3.05;;
34236;SDS011;20501;45.956;13.632;2022-08-01T03:48:02;7.47;;;3.38;;
34236;SDS011;20501;45.956;13.632;2022-08-01T03:50:41;3.55;;;3.25;;
34236;SDS011;20501;45.956;13.632;2022-08-01T03:53:09;4.88;;;3.58;;
34236;SDS011;20501;45.956;13.632;2022-08-01T03:55:36;6.68;;;3.58;;
34236;SDS011;20501;45.956;13.632;2022-08-01T03:58:04;4.25;;;3.85;;
34236;SDS011;20501;45.956;13.632;2022-08-01T04:00:31;4.63;;;3.67;;
34236;SDS011;20501;45.956;13.632;2022-08-01T04:02:56;3.60;;;3.30;;
34236;SDS011;20501;45.956;13.632;2022-08-01T04:05:23;6.35;;;3.50;;
34236;SDS011;20501;45.956;13.632;2022-08-01T04:07:49;4.43;;;3.47;;
34236;SDS011;20501;45.956;13.632;2022-08-01T04:10:20;5.07;;;3.42;;
34236;SDS011;20501;45.956;13.632;2022-08-01T04:12:47;4.88;;;3.60;;
34236;SDS011;20501;45.956;13.632;2022-08-01T04:15:12;5.15;;;3.38;;
34236;SDS011;20501;45.956;13.632;2022-08-01T04:17:38;5.93;;;3.60;;
34236;SDS011;20501;45.956;13.632;2022-08-01T04:20:04;4.78;;;3.63;;
34236;SDS011;20501;45.956;13.632;2022-08-01T04:22:30;4.57;;;3.00;;
34236;SDS011;20501;45.956;13.632;2022-08-01T04:24:55;4.68;;;4.00;;
34236;SDS011;20501;45.956;13.632;2022-08-01T04:27:25;3.70;;;3.05;;
34236;SDS011;20501;45.956;13.632;2022-08-01T04:29:54;4.32;;;3.92;;
34236;SDS011;20501;45.956;13.632;2022-08-01T04:32:23;3.85;;;3.55;;
34236;SDS011;20501;45.956;13.632;2022-08-01T04:34:50;4.10;;;3.70;;
34236;SDS011;20501;45.956;13.632;2022-08-01T04:37:21;8.38;;;4.63;;
34236;SDS011;20501;45.956;13.632;2022-08-01T04:39:48;4.40;;;3.00;;
34236;SDS011;20501;45.956;13.632;2022-08-01T04:42:17;4.03;;;3.47;;
34236;SDS011;20501;45.956;13.632;2022-08-01T04:44:43;5.20;;;4.22;;
34236;SDS011;20501;45.956;13.632;2022-08-01T04:47:09;5.60;;;3.60;;
34236;SDS011;20501;45.956;13.632;2022-08-01T04:49:35;7.73;;;3.83;;
34236;SDS011;20501;45.956;13.632;2022-08-01T04:52:01;4.18;;;3.58;;
34236;SDS011;20501;45.956;13.632;2022-08-01T04:54:26;5.25;;;4.18;;
34236;SDS011;20501;45.956;13.632;2022-08-01T04:56:58;6.55;;;3.90;;
34236;SDS011;20501;45.956;13.632;2022-08-01T05:02:05;4.85;;;3.20;;
34236;SDS011;20501;45.956;13.632;2022-08-01T05:04:35;5.70;;;3.80;;
34236;SDS011;20501;45.956;13.632;2022-08-01T05:07:02;5.50;;;3.45;;
34236;SDS011;20501;45.956;13.632;2022-08-01T05:09:28;4.63;;;3.72;;
34236;SDS011;20501;45.956;13.632;2022-08-01T05:11:54;3.75;;;3.40;;
34236;SDS011;20501;45.956;13.632;2022-08-01T05:14:19;9.50;;;4.03;;
34236;SDS011;20501;45.956;13.632;2022-08-01T05:16:46;4.68;;;3.55;;
34236;SDS011;20501;45.956;13.632;2022-08-01T05:19:11;4.03;;;3.38;;
34236;SDS011;20501;45.956;13.632;2022-08-01T05:21:37;3.88;;;3.53;;
34236;SDS011;20501;45.956;13.632;2022-08-01T05:24:03;4.57;;;3.53;;
34236;SDS011;20501;45.956;13.632;2022-08-01T05:28:55;5.05;;;3.97;;
34236;SDS011;20501;45.956;13.632;2022-08-01T05:31:20;5.15;;;3.42;;
34236;SDS011;20501;45.956;13.632;2022-08-01T05:33:45;8.63;;;4.35;;
34236;SDS011;20501;45.956;13.632;2022-08-01T05:36:11;8.50;;;3.50;;
34236;SDS011;20501;45.956;13.632;2022-08-01T05:38:36;4.68;;;3.60;;
34236;SDS011;20501;45.956;13.632;2022-08-01T05:41:02;3.42;;;3.13;;
34236;SDS011;20501;45.956;13.632;2022-08-01T05:43:27;4.05;;;3.58;;
34236;SDS011;20501;45.956;13.632;2022-08-01T05:45:52;4.30;;;3.30;;
34236;SDS011;20501;45.956;13.632;2022-08-01T05:48:18;8.13;;;3.53;;
34236;SDS011;20501;45.956;13.632;2022-08-01T05:50:43;9.90;;;3.60;;
34236;SDS011;20501;45.956;13.632;2022-08-01T05:53:09;4.07;;;3.40;;
34236;SDS011;20501;45.956;13.632;2022-08-01T05:55:34;12.77;;;3.60;;
34236;SDS011;20501;45.956;13.632;2022-08-01T05:58:00;4.03;;;3.25;;
34236;SDS011;20501;45.956;13.632;2022-08-01T06:00:25;5.57;;;3.65;;
34236;SDS011;20501;45.956;13.632;2022-08-01T06:02:51;3.85;;;3.25;;
34236;SDS011;20501;45.956;13.632;2022-08-01T06:05:16;4.18;;;3.63;;
34236;SDS011;20501;45.956;13.632;2022-08-01T06:07:42;5.63;;;3.20;;
34236;SDS011;20501;45.956;13.632;2022-08-01T06:10:07;5.50;;;3.63;;
34236;SDS011;20501;45.956;13.632;2022-08-01T06:12:33;4.13;;;2.70;;
34236;SDS011;20501;45.956;13.632;2022-08-01T06:14:59;4.53;;;3.33;;
34236;SDS011;20501;45.956;13.632;2022-08-01T06:17:24;4.90;;;3.10;;
34236;SDS011;20501;45.956;13.632;2022-08-01T06:19:50;3.35;;;3.05;;
34236;SDS011;20501;45.956;13.632;2022-08-01T06:22:15;3.85;;;3.28;;
34236;SDS011;20501;45.956;13.632;2022-08-01T06:24:41;4.85;;;3.45;;
34236;SDS011;20501;45.956;13.632;2022-08-01T06:27:06;4.10;;;3.22;;
34236;SDS011;20501;45.956;13.632;2022-08-01T06:29:31;6.15;;;3.08;;
34236;SDS011;20501;45.956;13.632;2022-08-01T06:31:57;4.05;;;3.40;;
34236;SDS011;20501;45.956;13.632;2022-08-01T06:34:23;6.20;;;3.53;;
34236;SDS011;20501;45.956;13.632;2022-08-01T06:36:49;3.55;;;3.25;;
34236;SDS011;20501;45.956;13.632;2022-08-01T06:39:14;3.63;;;3.10;;
34236;SDS011;20501;45.956;13.632;2022-08-01T06:41:39;3.60;;;2.90;;
34236;SDS011;20501;45.956;13.632;2022-08-01T06:44:06;3.70;;;3.40;;
34236;SDS011;20501;45.956;13.632;2022-08-01T06:46:32;5.75;;;3.65;;
34236;SDS011;20501;45.956;13.632;2022-08-01T06:48:58;3.97;;;3.17;;
34236;SDS011;20501;45.956;13.632;2022-08-01T06:51:23;3.35;;;3.05;;
34236;SDS011;20501;45.956;13.632;2022-08-01T06:53:49;6.00;;;3.05;;
34236;SDS011;20501;45.956;13.632;2022-08-01T06:56:14;3.58;;;3.03;;
34236;SDS011;20501;45.956;13.632;2022-08-01T06:58:39;6.65;;;3.20;;
34236;SDS011;20501;45.956;13.632;2022-08-01T07:01:05;4.82;;;3.00;;
34236;SDS011;20501;45.956;13.632;2022-08-01T07:03:32;3.28;;;2.95;;
34236;SDS011;20501;45.956;13.632;2022-08-01T07:05:57;6.13;;;4.05;;
34236;SDS011;20501;45.956;13.632;2022-08-01T07:08:23;5.53;;;3.35;;
34236;SDS011;20501;45.956;13.632;2022-08-01T07:10:48;3.78;;;3.25;;
34236;SDS011;20501;45.956;13.632;2022-08-01T07:13:14;4.53;;;3.20;;
34236;SDS011;20501;45.956;13.632;2022-08-01T07:15:45;5.47;;;2.92;;
34236;SDS011;20501;45.956;13.632;2022-08-01T07:18:11;3.47;;;2.80;;
34236;SDS011;20501;45.956;13.632;2022-08-01T07:20:37;3.85;;;3.10;;
34236;SDS011;20501;45.956;13.632;2022-08-01T07:23:02;4.72;;;3.03;;
34236;SDS011;20501;45.956;13.632;2022-08-01T07:25:28;3.75;;;3.03;;
34236;SDS011;20501;45.956;13.632;2022-08-01T07:27:53;4.50;;;3.25;;
34236;SDS011;20501;45.956;13.632;2022-08-01T07:30:19;3.37;;;3.07;;
34236;SDS011;20501;45.956;13.632;2022-08-01T07:32:44;5.28;;;3.10;;
34236;SDS011;20501;45.956;13.632;2022-08-01T07:35:10;4.13;;;3.00;;
34236;SDS011;20501;45.956;13.632;2022-08-01T07:37:35;4.78;;;2.60;;
34236;SDS011;20501;45.956;13.632;2022-08-01T07:40:01;2.75;;;2.55;;
34236;SDS011;20501;45.956;13.632;2022-08-01T07:42:29;4.90;;;3.58;;
34236;SDS011;20501;45.956;13.632;2022-08-01T07:44:54;4.70;;;2.97;;
34236;SDS011;20501;45.956;13.632;2022-08-01T07:47:26;4.63;;;3.42;;
34236;SDS011;20501;45.956;13.632;2022-08-01T07:49:52;3.53;;;3.00;;
34236;SDS011;20501;45.956;13.632;2022-08-01T07:52:24;3.28;;;2.78;;
34236;SDS011;20501;45.956;13.632;2022-08-01T07:54:49;4.27;;;2.90;;
34236;SDS011;20501;45.956;13.632;2022-08-01T07:57:14;2.90;;;2.65;;
34236;SDS011;20501;45.956;13.632;2022-08-01T07:59:40;4.10;;;2.40;;
34236;SDS011;20501;45.956;13.632;2022-08-01T08:02:05;6.33;;;2.70;;
34236;SDS011;20501;45.956;13.632;2022-08-01T08:04:31;5.70;;;3.20;;
34236;SDS011;20501;45.956;13.632;2022-08-01T08:06:56;4.65;;;2.90;;
34236;SDS011;20501;45.956;13.632;2022-08-01T08:09:21;3.97;;;2.53;;
34236;SDS011;20501;45.956;13.632;2022-08-01T08:11:47;2.65;;;2.45;;
34236;SDS011;20501;45.956;13.632;2022-08-01T08:14:13;3.70;;;2.57;;
34236;SDS011;20501;45.956;13.632;2022-08-01T08:16:38;4.53;;;2.77;;
34236;SDS011;20501;45.956;13.632;2022-08-01T08:19:04;8.23;;;2.50;;
34236;SDS011;20501;45.956;13.632;2022-08-01T08:21:30;2.78;;;2.58;;
34236;SDS011;20501;45.956;13.632;2022-08-01T08:23:55;2.90;;;2.35;;
34236;SDS011;20501;45.956;13.632;2022-08-01T08:26:39;2.67;;;2.47;;
34236;SDS011;20501;45.956;13.632;2022-08-01T08:29:05;6.37;;;2.60;;
34236;SDS011;20501;45.956;13.632;2022-08-01T08:31:30;4.53;;;2.47;;
34236;SDS011;20501;45.956;13.632;2022-08-01T08:33:56;4.45;;;2.88;;
34236;SDS011;20501;45.956;13.632;2022-08-01T08:36:22;2.80;;;2.33;;
34236;SDS011;20501;45.956;13.632;2022-08-01T08:38:47;4.65;;;2.55;;
34236;SDS011;20501;45.956;13.632;2022-08-01T08:41:12;5.15;;;2.33;;
34236;SDS011;20501;45.956;13.632;2022-08-01T08:43:39;4.13;;;2.60;;
34236;SDS011;20501;45.956;13.632;2022-08-01T08:46:05;2.80;;;1.90;;
34236;SDS011;20501;45.956;13.632;2022-08-01T08:48:33;2.60;;;2.08;;
34236;SDS011;20501;45.956;13.632;2022-08-01T08:50:59;2.08;;;1.88;;
34236;SDS011;20501;45.956;13.632;2022-08-01T08:53:25;2.17;;;1.97;;
34236;SDS011;20501;45.956;13.632;2022-08-01T08:55:51;2.17;;;1.80;;
34236;SDS011;20501;45.956;13.632;2022-08-01T08:58:18;2.97;;;2.15;;
34236;SDS011;20501;45.956;13.632;2022-08-01T09:00:44;2.63;;;1.77;;
34236;SDS011;20501;45.956;13.632;2022-08-01T09:03:15;3.10;;;1.45;;
34236;SDS011;20501;45.956;13.632;2022-08-01T09:05:41;2.00;;;1.67;;
34236;SDS011;20501;45.956;13.632;2022-08-01T09:10:33;3.33;;;1.77;;
34236;SDS011;20501;45.956;13.632;2022-08-01T09:13:06;3.30;;;2.60;;
34236;SDS011;20501;45.956;13.632;2022-08-01T09:15:40;4.40;;;1.70;;
34236;SDS011;20501;45.956;13.632;2022-08-01T09:18:07;3.10;;;2.08;;
34236;SDS011;20501;45.956;13.632;2022-08-01T09:20:33;2.33;;;2.03;;
34236;SDS011;20501;45.956;13.632;2022-08-01T09:23:01;2.92;;;1.80;;
34236;SDS011;20501;45.956;13.632;2022-08-01T09:25:28;2.65;;;1.70;;
34236;SDS011;20501;45.956;13.632;2022-08-01T09:28:05;2.45;;;1.38;;
34236;SDS011;20501;45.956;13.632;2022-08-01T09:30:37;2.35;;;1.77;;
34236;SDS011;20501;45.956;13.632;2022-08-01T09:33:06;2.97;;;1.83;;
34236;SDS011;20501;45.956;13.632;2022-08-01T09:35:33;1.87;;;1.77;;
34236;SDS011;20501;45.956;13.632;2022-08-01T09:38:11;3.70;;;1.60;;
34236;SDS011;20501;45.956;13.632;2022-08-01T09:40:52;2.10;;;1.55;;
34236;SDS011;20501;45.956;13.632;2022-08-01T09:43:23;3.55;;;1.58;;
34236;SDS011;20501;45.956;13.632;2022-08-01T09:45:51;2.35;;;1.80;;
34236;SDS011;20501;45.956;13.632;2022-08-01T09:48:17;1.53;;;1.43;;
34236;SDS011;20501;45.956;13.632;2022-08-01T09:50:44;3.17;;;1.23;;
34236;SDS011;20501;45.956;13.632;2022-08-01T09:53:14;5.30;;;1.38;;
34236;SDS011;20501;45.956;13.632;2022-08-01T09:58:06;4.65;;;1.77;;
34236;SDS011;20501;45.956;13.632;2022-08-01T10:00:32;5.20;;;2.00;;
34236;SDS011;20501;45.956;13.632;2022-08-01T10:02:59;2.13;;;1.63;;
34236;SDS011;20501;45.956;13.632;2022-08-01T10:05:32;3.57;;;1.83;;
34236;SDS011;20501;45.956;13.632;2022-08-01T10:08:02;5.32;;;2.00;;
34236;SDS011;20501;45.956;13.632;2022-08-01T10:10:29;2.63;;;1.77;;
34236;SDS011;20501;45.956;13.632;2022-08-01T10:15:22;2.47;;;1.70;;
34236;SDS011;20501;45.956;13.632;2022-08-01T10:17:55;2.58;;;1.58;;
34236;SDS011;20501;45.956;13.632;2022-08-01T10:20:23;5.25;;;1.88;;
34236;SDS011;20501;45.956;13.632;2022-08-01T10:22:51;5.10;;;1.90;;
34236;SDS011;20501;45.956;13.632;2022-08-01T10:25:20;4.60;;;2.00;;
34236;SDS011;20501;45.956;13.632;2022-08-01T10:27:50;2.80;;;2.17;;
34236;SDS011;20501;45.956;13.632;2022-08-01T10:30:21;2.53;;;2.25;;
34236;SDS011;20501;45.956;13.632;2022-08-01T10:32:47;2.70;;;2.07;;
34236;SDS011;20501;45.956;13.632;2022-08-01T10:35:13;2.22;;;1.77;;
34236;SDS011;20501;45.956;13.632;2022-08-01T10:37:42;5.15;;;2.00;;
34236;SDS011;20501;45.956;13.632;2022-08-01T10:40:11;1.80;;;1.70;;
34236;SDS011;20501;45.956;13.632;2022-08-01T10:42:39;2.88;;;2.20;;
34236;SDS011;20501;45.956;13.632;2022-08-01T10:45:07;3.25;;;2.30;;
34236;SDS011;20501;45.956;13.632;2022-08-01T10:47:40;2.70;;;2.00;;
34236;SDS011;20501;45.956;13.632;2022-08-01T10:50:26;2.95;;;1.60;;
34236;SDS011;20501;45.956;13.632;2022-08-01T10:53:06;6.15;;;1.90;;
34236;SDS011;20501;45.956;13.632;2022-08-01T10:58:38;2.17;;;1.83;;
34236;SDS011;20501;45.956;13.632;2022-08-01T11:04:11;2.50;;;1.92;;
34236;SDS011;20501;45.956;13.632;2022-08-01T11:06:42;4.13;;;1.70;;
34236;SDS011;20501;45.956;13.632;2022-08-01T11:14:34;3.97;;;1.80;;
34236;SDS011;20501;45.956;13.632;2022-08-01T11:22:30;2.15;;;1.80;;
34236;SDS011;20501;45.956;13.632;2022-08-01T11:24:55;3.53;;;2.07;;
34236;SDS011;20501;45.956;13.632;2022-08-01T11:32:48;3.22;;;1.95;;
34236;SDS011;20501;45.956;13.632;2022-08-01T11:35:15;2.42;;;2.10;;
34236;SDS011;20501;45.956;13.632;2022-08-01T11:37:41;3.25;;;1.90;;
34236;SDS011;20501;45.956;13.632;2022-08-01T11:42:42;3.17;;;1.88;;
34236;SDS011;20501;45.956;13.632;2022-08-01T11:45:08;2.80;;;2.00;;
34236;SDS011;20501;45.956;13.632;2022-08-01T11:47:43;2.47;;;2.28;;
34236;SDS011;20501;45.956;13.632;2022-08-01T11:53:02;2.10;;;1.73;;
34236;SDS011;20501;45.956;13.632;2022-08-01T11:55:29;14.35;;;2.88;;
34236;SDS011;20501;45.956;13.632;2022-08-01T11:57:59;2.25;;;1.70;;
34236;SDS011;20501;45.956;13.632;2022-08-01T12:00:32;2.25;;;1.50;;
34236;SDS011;20501;45.956;13.632;2022-08-01T12:03:05;2.58;;;1.63;;
34236;SDS011;20501;45.956;13.632;2022-08-01T12:05:33;2.28;;;1.42;;
34236;SDS011;20501;45.956;13.632;2022-08-01T12:08:02;1.90;;;1.70;;
34236;SDS011;20501;45.956;13.632;2022-08-01T12:10:30;1.55;;;1.45;;
34236;SDS011;20501;45.956;13.632;2022-08-01T12:13:02;1.75;;;1.52;;
34236;SDS011;20501;45.956;13.632;2022-08-01T12:15:31;2.72;;;1.50;;
34236;SDS011;20501;45.956;13.632;2022-08-01T12:17:59;1.50;;;1.40;;
34236;SDS011;20501;45.956;13.632;2022-08-01T12:20:27;1.90;;;1.55;;
34236;SDS011;20501;45.956;13.632;2022-08-01T12:23:01;4.18;;;1.40;;
34236;SDS011;20501;45.956;13.632;2022-08-01T12:25:37;1.30;;;1.20;;
34236;SDS011;20501;45.956;13.632;2022-08-01T12:28:08;1.30;;;1.20;;
34236;SDS011;20501;45.956;13.632;2022-08-01T12:30:35;4.15;;;1.40;;
34236;SDS011;20501;45.956;13.632;2022-08-01T12:33:09;4.03;;;1.50;;
34236;SDS011;20501;45.956;13.632;2022-08-01T12:35:36;1.75;;;1.25;;
34236;SDS011;20501;45.956;13.632;2022-08-01T12:40:31;1.95;;;1.40;;
34236;SDS011;20501;45.956;13.632;2022-08-01T12:42:59;3.78;;;1.38;;
34236;SDS011;20501;45.956;13.632;2022-08-01T12:45:48;1.80;;;1.40;;
34236;SDS011;20501;45.956;13.632;2022-08-01T12:48:15;3.00;;;1.40;;
34236;SDS011;20501;45.956;13.632;2022-08-01T12:53:11;1.20;;;1.10;;
34236;SDS011;20501;45.956;13.632;2022-08-01T12:55:52;1.50;;;1.27;;
34236;SDS011;20501;45.956;13.632;2022-08-01T12:58:19;2.45;;;1.30;;
34236;SDS011;20501;45.956;13.632;2022-08-01T13:01:02;1.10;;;1.00;;
34236;SDS011;20501;45.956;13.632;2022-08-01T13:03:29;1.52;;;1.30;;
34236;SDS011;20501;45.956;13.632;2022-08-01T13:05:55;1.40;;;1.10;;
34236;SDS011;20501;45.956;13.632;2022-08-01T13:11:00;2.22;;;1.50;;
34236;SDS011;20501;45.956;13.632;2022-08-01T13:13:43;2.60;;;1.30;;
34236;SDS011;20501;45.956;13.632;2022-08-01T13:16:12;2.55;;;1.08;;
34236;SDS011;20501;45.956;13.632;2022-08-01T13:18:38;1.83;;;1.30;;
34236;SDS011;20501;45.956;13.632;2022-08-01T13:23:40;0.98;;;0.93;;
34236;SDS011;20501;45.956;13.632;2022-08-01T13:26:07;1.92;;;1.30;;
34236;SDS011;20501;45.956;13.632;2022-08-01T13:28:33;3.93;;;1.33;;
34236;SDS011;20501;45.956;13.632;2022-08-01T13:31:05;1.85;;;1.20;;
34236;SDS011;20501;45.956;13.632;2022-08-01T13:33:41;3.38;;;1.33;;
34236;SDS011;20501;45.956;13.632;2022-08-01T13:36:09;2.67;;;1.30;;
34236;SDS011;20501;45.956;13.632;2022-08-01T13:38:35;1.52;;;1.15;;
34236;SDS011;20501;45.956;13.632;2022-08-01T13:41:19;1.42;;;1.10;;
34236;SDS011;20501;45.956;13.632;2022-08-01T13:43:44;1.20;;;1.10;;
34236;SDS011;20501;45.956;13.632;2022-08-01T13:46:10;3.43;;;1.13;;
34236;SDS011;20501;45.956;13.632;2022-08-01T13:48:36;2.83;;;1.10;;
34236;SDS011;20501;45.956;13.632;2022-08-01T13:51:01;2.03;;;1.27;;
34236;SDS011;20501;45.956;13.632;2022-08-01T13:53:27;2.47;;;1.33;;
34236;SDS011;20501;45.956;13.632;2022-08-01T13:55:53;3.90;;;1.35;;
34236;SDS011;20501;45.956;13.632;2022-08-01T13:58:19;3.00;;;1.57;;
34236;SDS011;20501;45.956;13.632;2022-08-01T14:00:44;5.83;;;1.40;;
34236;SDS011;20501;45.956;13.632;2022-08-01T14:03:11;2.25;;;1.15;;
34236;SDS011;20501;45.956;13.632;2022-08-01T14:05:37;0.80;;;0.80;;
34236;SDS011;20501;45.956;13.632;2022-08-01T14:08:03;1.08;;;0.88;;
34236;SDS011;20501;45.956;13.632;2022-08-01T14:10:28;4.07;;;2.00;;
34236;SDS011;20501;45.956;13.632;2022-08-01T14:12:57;1.50;;;1.20;;
34236;SDS011;20501;45.956;13.632;2022-08-01T14:15:23;1.20;;;1.10;;
34236;SDS011;20501;45.956;13.632;2022-08-01T14:17:49;1.45;;;1.35;;
34236;SDS011;20501;45.956;13.632;2022-08-01T14:20:14;2.20;;;1.27;;
34236;SDS011;20501;45.956;13.632;2022-08-01T14:22:40;2.33;;;0.90;;
34236;SDS011;20501;45.956;13.632;2022-08-01T14:25:06;2.83;;;1.53;;
34236;SDS011;20501;45.956;13.632;2022-08-01T14:27:32;1.33;;;1.23;;
34236;SDS011;20501;45.956;13.632;2022-08-01T14:30:01;1.20;;;1.10;;
34236;SDS011;20501;45.956;13.632;2022-08-01T14:32:27;1.20;;;1.10;;
34236;SDS011;20501;45.956;13.632;2022-08-01T14:34:52;1.97;;;1.60;;
34236;SDS011;20501;45.956;13.632;2022-08-01T14:37:18;2.53;;;1.07;;
34236;SDS011;20501;45.956;13.632;2022-08-01T14:39:43;2.10;;;1.30;;
34236;SDS011;20501;45.956;13.632;2022-08-01T14:42:08;1.67;;;1.30;;
34236;SDS011;20501;45.956;13.632;2022-08-01T14:44:34;1.37;;;1.10;;
34236;SDS011;20501;45.956;13.632;2022-08-01T14:46:59;2.17;;;1.30;;
34236;SDS011;20501;45.956;13.632;2022-08-01T14:49:25;1.10;;;1.00;;
34236;SDS011;20501;45.956;13.632;2022-08-01T14:51:50;2.30;;;1.13;;
34236;SDS011;20501;45.956;13.632;2022-08-01T14:54:15;2.17;;;1.23;;
34236;SDS011;20501;45.956;13.632;2022-08-01T14:56:41;1.77;;;1.20;;
34236;SDS011;20501;45.956;13.632;2022-08-01T14:59:06;2.73;;;1.20;;
34236;SDS011;20501;45.956;13.632;2022-08-01T15:01:32;2.47;;;1.30;;
34236;SDS011;20501;45.956;13.632;2022-08-01T15:03:57;1.60;;;1.00;;
34236;SDS011;20501;45.956;13.632;2022-08-01T15:06:22;1.43;;;1.33;;
34236;SDS011;20501;45.956;13.632;2022-08-01T15:08:48;2.80;;;1.30;;
34236;SDS011;20501;45.956;13.632;2022-08-01T15:11:13;16.07;;;1.33;;
34236;SDS011;20501;45.956;13.632;2022-08-01T15:13:39;1.43;;;1.30;;
34236;SDS011;20501;45.956;13.632;2022-08-01T15:16:04;1.57;;;1.20;;
34236;SDS011;20501;45.956;13.632;2022-08-01T15:18:30;1.80;;;1.30;;
34236;SDS011;20501;45.956;13.632;2022-08-01T15:20:55;1.50;;;1.33;;
34236;SDS011;20501;45.956;13.632;2022-08-01T15:23:22;3.35;;;1.35;;
34236;SDS011;20501;45.956;13.632;2022-08-01T15:25:47;1.50;;;1.40;;
34236;SDS011;20501;45.956;13.632;2022-08-01T15:28:13;2.63;;;1.40;;
34236;SDS011;20501;45.956;13.632;2022-08-01T15:30:39;3.27;;;1.33;;
34236;SDS011;20501;45.956;13.632;2022-08-01T15:33:04;1.57;;;1.00;;
34236;SDS011;20501;45.956;13.632;2022-08-01T15:35:30;3.20;;;1.30;;
34236;SDS011;20501;45.956;13.632;2022-08-01T15:37:56;1.83;;;1.10;;
34236;SDS011;20501;45.956;13.632;2022-08-01T15:40:21;1.50;;;1.30;;
34236;SDS011;20501;45.956;13.632;2022-08-01T15:42:47;2.17;;;1.10;;
34236;SDS011;20501;45.956;13.632;2022-08-01T15:45:12;3.10;;;1.60;;